createdAt,value
2022-11-15T00:00:57.267Z,14.62
2022-11-15T00:03:28.093Z,14.60
2022-11-15T00:05:54.554Z,14.75
2022-11-15T00:08:21.605Z,14.77
2022-11-15T00:11:02.545Z,14.78
2022-11-15T00:13:29.729Z,14.13
2022-11-15T00:16:01.672Z,14.28
2022-11-15T00:18:29.879Z,14.50
2022-11-15T00:20:57.357Z,14.50
2022-11-15T00:23:23.825Z,14.41
2022-11-15T00:26:00.203Z,14.70
2022-11-15T00:28:27.169Z,14.75
2022-11-15T00:30:54.109Z,14.82
2022-11-15T00:33:20.561Z,14.71
2022-11-15T00:35:47.007Z,14.67
2022-11-15T00:38:13.502Z,14.57
2022-11-15T00:40:39.946Z,14.59
2022-11-15T00:43:06.423Z,14.74
2022-11-15T00:45:32.865Z,14.73
2022-11-15T00:47:59.358Z,14.80
2022-11-15T00:50:25.801Z,14.82
2022-11-15T00:52:52.244Z,14.90
2022-11-15T00:55:20.146Z,14.94
2022-11-15T00:57:47.239Z,14.91
2022-11-15T01:00:14.144Z,14.98
2022-11-15T01:02:40.598Z,15.02
2022-11-15T01:05:07.353Z,15.03
2022-11-15T01:07:33.887Z,15.05
2022-11-15T01:10:00.361Z,15.06
2022-11-15T01:12:26.796Z,15.09
2022-11-15T01:14:53.250Z,15.14
2022-11-15T01:17:19.721Z,15.16
2022-11-15T01:19:46.203Z,15.21
2022-11-15T01:22:12.634Z,15.18
2022-11-15T01:24:39.092Z,15.10
2022-11-15T01:27:05.601Z,15.19
2022-11-15T01:29:32.058Z,15.17
2022-11-15T01:31:58.524Z,15.22
2022-11-15T01:34:24.958Z,15.24
2022-11-15T01:36:51.455Z,15.26
2022-11-15T01:39:17.977Z,15.25
2022-11-15T01:41:44.577Z,15.27
2022-11-15T01:44:53.059Z,15.25
2022-11-15T01:47:25.621Z,15.18
2022-11-15T01:50:10.684Z,15.16
2022-11-15T01:52:40.320Z,15.15
2022-11-15T01:55:22.419Z,15.14
2022-11-15T01:57:54.064Z,15.13
2022-11-15T02:00:20.751Z,15.14
2022-11-15T02:02:47.623Z,15.13
2022-11-15T02:05:14.120Z,15.13
2022-11-15T02:07:41.349Z,15.00
2022-11-15T02:10:28.807Z,14.93
2022-11-15T02:12:58.792Z,15.06
2022-11-15T02:15:36.273Z,15.03
2022-11-15T02:18:47.573Z,14.98
2022-11-15T02:21:41.954Z,14.92
2022-11-15T02:24:17.104Z,14.90
2022-11-15T02:27:11.179Z,14.89
2022-11-15T02:30:00.268Z,14.89
2022-11-15T02:32:35.771Z,14.72
2022-11-15T02:35:28.135Z,14.64
2022-11-15T02:38:07.688Z,14.59
2022-11-15T02:40:47.315Z,14.61
2022-11-15T02:43:27.514Z,14.62
2022-11-15T02:46:16.884Z,14.72
2022-11-15T02:48:44.167Z,13.70
2022-11-15T02:51:11.356Z,14.21
2022-11-15T02:53:37.845Z,14.44
2022-11-15T02:56:04.814Z,14.43
2022-11-15T02:59:01.832Z,14.32
2022-11-15T03:01:53.140Z,14.35
2022-11-15T03:04:48.522Z,14.36
2022-11-15T03:07:23.022Z,14.37
2022-11-15T03:10:07.488Z,14.33
2022-11-15T03:12:57.719Z,14.44
2022-11-15T03:15:43.210Z,14.48
2022-11-15T03:18:34.319Z,14.49
2022-11-15T03:21:07.511Z,14.50
2022-11-15T03:23:36.907Z,14.46
2022-11-15T03:26:10.343Z,14.47
2022-11-15T03:28:43.182Z,14.15
2022-11-15T03:31:14.900Z,14.31
2022-11-15T03:33:41.805Z,14.27
2022-11-15T03:36:08.660Z,14.25
2022-11-15T03:38:36.746Z,14.23
2022-11-15T03:41:23.182Z,14.27
2022-11-15T03:44:14.857Z,14.23
2022-11-15T03:46:58.356Z,14.23
2022-11-15T03:49:33.409Z,14.24
2022-11-15T03:52:01.074Z,14.17
2022-11-15T03:54:27.551Z,14.18
2022-11-15T03:56:53.998Z,14.22
2022-11-15T03:59:20.560Z,14.17
2022-11-15T04:01:47.009Z,14.07
2022-11-15T04:04:13.485Z,14.17
2022-11-15T04:06:39.968Z,14.13
2022-11-15T04:09:06.506Z,14.12
2022-11-15T04:11:32.978Z,14.08
2022-11-15T04:14:17.982Z,13.99
2022-11-15T04:16:44.432Z,13.63
2022-11-15T04:19:10.965Z,13.48
2022-11-15T04:21:37.442Z,13.30
2022-11-15T04:24:04.191Z,13.47
2022-11-15T04:26:30.964Z,13.55
2022-11-15T04:28:57.428Z,13.53
2022-11-15T04:31:24.207Z,13.60
2022-11-15T04:33:50.690Z,13.65
2022-11-15T04:36:17.150Z,13.46
2022-11-15T04:38:43.625Z,13.52
2022-11-15T04:41:10.076Z,13.61
2022-11-15T04:43:36.628Z,13.66
2022-11-15T04:46:03.175Z,13.76
2022-11-15T04:48:29.644Z,13.81
2022-11-15T04:50:56.070Z,13.86
2022-11-15T04:53:22.527Z,13.73
2022-11-15T04:55:49.021Z,13.77
2022-11-15T04:58:15.532Z,13.80
2022-11-15T05:00:42.010Z,13.74
2022-11-15T05:03:10.216Z,13.80
2022-11-15T05:05:37.076Z,13.77
2022-11-15T05:08:04.145Z,13.74
2022-11-15T05:10:30.923Z,13.77
2022-11-15T05:12:57.392Z,13.83
2022-11-15T05:15:23.988Z,13.80
2022-11-15T05:17:50.495Z,13.87
2022-11-15T05:20:16.972Z,13.48
2022-11-15T05:22:43.419Z,13.42
2022-11-15T05:25:09.934Z,13.51
2022-11-15T05:27:36.425Z,13.55
2022-11-15T05:30:02.940Z,13.55
2022-11-15T05:32:29.688Z,13.67
2022-11-15T05:34:56.244Z,13.78
2022-11-15T05:37:22.936Z,13.88
2022-11-15T05:39:49.404Z,13.88
2022-11-15T05:42:17.498Z,13.96
2022-11-15T05:44:49.376Z,14.00
2022-11-15T05:47:25.022Z,14.07
2022-11-15T05:49:54.464Z,14.11
2022-11-15T05:52:26.663Z,14.16
2022-11-15T05:54:54.972Z,14.21
2022-11-15T05:57:21.426Z,14.28
2022-11-15T05:59:48.362Z,14.31
2022-11-15T06:02:14.882Z,14.17
2022-11-15T06:04:41.392Z,14.24
2022-11-15T06:07:07.880Z,13.71
2022-11-15T06:09:34.380Z,13.78
2022-11-15T06:12:00.848Z,13.97
2022-11-15T06:14:27.301Z,13.81
2022-11-15T06:16:53.761Z,13.63
2022-11-15T06:19:20.249Z,13.94
2022-11-15T06:21:46.712Z,14.02
2022-11-15T06:24:13.216Z,14.19
2022-11-15T06:26:39.646Z,14.21
2022-11-15T06:29:06.109Z,14.29
2022-11-15T06:31:32.603Z,13.80
2022-11-15T06:33:59.050Z,13.63
2022-11-15T06:36:25.635Z,13.36
2022-11-15T06:38:52.122Z,13.24
2022-11-15T06:41:18.554Z,13.13
2022-11-15T06:43:45.005Z,13.57
2022-11-15T06:46:11.635Z,13.81
2022-11-15T06:48:38.135Z,13.80
2022-11-15T06:51:05.534Z,13.86
2022-11-15T06:53:33.071Z,13.57
2022-11-15T06:56:03.640Z,13.78
2022-11-15T06:58:30.118Z,13.98
2022-11-15T07:01:06.206Z,13.99
2022-11-15T07:03:33.123Z,14.16
2022-11-15T07:06:05.683Z,14.26
2022-11-15T07:08:33.660Z,14.44
2022-11-15T07:11:02.891Z,14.39
2022-11-15T07:13:31.660Z,14.57
2022-11-15T07:15:58.330Z,14.65
2022-11-15T07:18:24.788Z,14.76
2022-11-15T07:20:51.244Z,14.85
2022-11-15T07:23:17.855Z,14.88
2022-11-15T07:25:44.572Z,14.98
2022-11-15T07:28:11.274Z,15.04
2022-11-15T07:30:41.253Z,15.12
2022-11-15T07:33:11.479Z,15.14
2022-11-15T07:35:37.925Z,15.19
2022-11-15T07:38:04.382Z,15.13
2022-11-15T07:40:32.478Z,15.20
2022-11-15T07:43:03.475Z,15.11
2022-11-15T07:45:30.644Z,15.20
2022-11-15T07:47:57.678Z,15.33
2022-11-15T07:50:25.073Z,15.10
2022-11-15T07:52:56.046Z,15.10
2022-11-15T07:55:23.553Z,15.19
2022-11-15T07:57:50.409Z,15.28
2022-11-15T08:00:18.030Z,15.32
2022-11-15T08:02:44.688Z,15.46
2022-11-15T08:05:11.346Z,15.56
2022-11-15T08:07:37.804Z,15.58
2022-11-15T08:10:05.026Z,15.58
2022-11-15T08:12:31.690Z,15.69
2022-11-15T08:14:58.277Z,15.74
2022-11-15T08:17:25.522Z,15.69
2022-11-15T08:19:52.015Z,15.79
2022-11-15T08:22:19.097Z,15.88
2022-11-15T08:24:45.819Z,15.90
2022-11-15T08:27:12.522Z,15.97
2022-11-15T08:29:39.000Z,15.98
2022-11-15T08:32:05.643Z,15.95
2022-11-15T08:34:32.110Z,15.99
2022-11-15T08:36:58.538Z,15.96
2022-11-15T08:39:24.991Z,16.08
2022-11-15T08:41:51.500Z,16.12
2022-11-15T08:44:18.050Z,16.09
2022-11-15T08:46:46.791Z,15.95
2022-11-15T08:49:13.258Z,15.93
2022-11-15T08:51:39.775Z,15.84
2022-11-15T08:54:06.380Z,15.59
2022-11-15T08:56:32.835Z,15.21
2022-11-15T08:58:59.327Z,15.05
2022-11-15T09:01:25.857Z,14.30
2022-11-15T09:03:52.357Z,14.14
2022-11-15T09:06:18.970Z,14.48
2022-11-15T09:08:47.928Z,14.12
2022-11-15T09:11:15.019Z,13.82
2022-11-15T09:13:41.549Z,13.66
2022-11-15T09:16:08.003Z,14.14
2022-11-15T09:18:35.566Z,14.16
2022-11-15T09:21:02.266Z,14.40
2022-11-15T09:23:29.096Z,14.71
2022-11-15T09:26:01.313Z,14.55
2022-11-15T09:28:28.642Z,14.63
2022-11-15T09:31:04.300Z,15.08
2022-11-15T09:33:31.833Z,15.29
2022-11-15T09:36:08.222Z,15.28
2022-11-15T09:38:35.845Z,15.41
2022-11-15T09:41:14.642Z,15.65
2022-11-15T09:44:07.951Z,15.91
2022-11-15T09:47:08.168Z,16.12
2022-11-15T09:49:34.938Z,15.94
2022-11-15T09:52:01.712Z,16.20
2022-11-15T09:54:52.087Z,16.31
2022-11-15T09:57:21.449Z,16.27
2022-11-15T10:00:38.929Z,16.19
2022-11-15T10:03:12.339Z,16.44
2022-11-15T10:05:51.322Z,16.37
2022-11-15T10:08:25.495Z,16.07
2022-11-15T10:11:30.475Z,16.29
2022-11-15T10:13:50.002Z,16.55
2022-11-15T10:16:37.890Z,16.68
2022-11-15T10:19:15.536Z,16.52
2022-11-15T10:21:54.601Z,16.29
2022-11-15T10:24:27.554Z,16.41
2022-11-15T10:26:54.834Z,16.52
2022-11-15T10:29:26.757Z,16.59
2022-11-15T10:31:53.946Z,16.73
2022-11-15T10:34:23.554Z,16.75
2022-11-15T10:36:58.721Z,16.75
2022-11-15T10:39:26.073Z,16.88
2022-11-15T10:41:52.636Z,16.92
2022-11-15T10:44:20.606Z,16.92
2022-11-15T10:47:07.532Z,16.88
2022-11-15T10:49:35.494Z,16.71
2022-11-15T10:52:20.834Z,16.92
2022-11-15T10:55:02.366Z,16.93
2022-11-15T10:57:37.928Z,16.92
2022-11-15T11:00:13.150Z,17.13
2022-11-15T11:02:56.988Z,17.11
2022-11-15T11:05:39.964Z,17.17
2022-11-15T11:08:11.215Z,17.19
2022-11-15T11:10:51.570Z,17.14
2022-11-15T11:13:26.085Z,17.23
2022-11-15T11:16:12.056Z,17.18
2022-11-15T11:19:05.299Z,17.31
2022-11-15T11:21:36.808Z,17.31
2022-11-15T11:24:16.201Z,17.38
2022-11-15T11:27:07.734Z,17.30
2022-11-15T11:30:00.867Z,17.25
2022-11-15T11:32:40.139Z,17.34
2022-11-15T11:35:32.494Z,17.34
2022-11-15T11:38:29.480Z,17.37
2022-11-15T11:41:21.117Z,17.32
2022-11-15T11:44:05.711Z,17.42
2022-11-15T11:46:41.340Z,17.43
2022-11-15T11:49:20.929Z,17.22
2022-11-15T11:52:11.049Z,17.26
2022-11-15T11:54:51.016Z,17.32
2022-11-15T11:57:40.505Z,17.42
2022-11-15T12:00:25.345Z,17.44
2022-11-15T12:03:19.867Z,17.39
2022-11-15T12:06:01.130Z,17.33
2022-11-15T12:08:54.595Z,17.33
2022-11-15T12:11:29.926Z,17.34
2022-11-15T12:14:02.050Z,17.31
2022-11-15T12:16:31.938Z,17.19
2022-11-15T12:19:04.413Z,17.19
2022-11-15T12:22:04.980Z,17.18
2022-11-15T12:25:04.450Z,17.18
2022-11-15T12:27:36.639Z,16.89
2022-11-15T12:30:16.689Z,16.87
2022-11-15T12:32:57.791Z,16.88
2022-11-15T12:35:41.048Z,16.87
2022-11-15T12:38:13.045Z,16.88
2022-11-15T12:41:15.743Z,16.93
2022-11-15T12:43:44.319Z,16.93
2022-11-15T12:46:41.000Z,17.01
2022-11-15T12:49:28.988Z,17.05
2022-11-15T12:51:58.448Z,16.70
2022-11-15T12:54:24.882Z,16.60
2022-11-15T12:57:03.506Z,16.69
2022-11-15T13:00:02.805Z,16.87
2022-11-15T13:02:35.048Z,16.41
2022-11-15T13:05:16.684Z,16.67
2022-11-15T13:07:43.125Z,16.77
2022-11-15T13:10:12.559Z,16.86
2022-11-15T13:12:45.090Z,16.96
2022-11-15T13:15:14.538Z,17.01
2022-11-15T13:17:45.051Z,16.81
2022-11-15T13:20:14.399Z,17.10
2022-11-15T13:22:46.319Z,17.13
2022-11-15T13:25:22.109Z,17.11
2022-11-15T13:27:50.610Z,16.89
2022-11-15T13:30:23.774Z,17.12
2022-11-15T13:32:53.245Z,17.22
2022-11-15T13:35:23.193Z,17.30
2022-11-15T13:37:51.032Z,17.16
2022-11-15T13:40:28.576Z,17.15
2022-11-15T13:42:57.619Z,17.07
2022-11-15T13:45:25.117Z,17.12
2022-11-15T13:47:57.423Z,17.09
2022-11-15T13:50:32.741Z,17.14
2022-11-15T13:53:05.395Z,17.12
2022-11-15T13:55:33.841Z,17.05
2022-11-15T13:58:04.535Z,17.07
2022-11-15T14:00:43.277Z,17.12
2022-11-15T14:03:20.315Z,17.17
2022-11-15T14:06:08.399Z,17.27
2022-11-15T14:08:36.388Z,17.36
2022-11-15T14:11:20.474Z,17.30
2022-11-15T14:14:08.567Z,17.44
2022-11-15T14:16:36.333Z,17.49
2022-11-15T14:19:04.398Z,17.37
2022-11-15T14:21:31.272Z,17.39
2022-11-15T14:24:18.562Z,17.22
2022-11-15T14:26:45.331Z,17.30
2022-11-15T14:29:30.406Z,17.36
2022-11-15T14:32:16.657Z,17.48
2022-11-15T14:34:44.072Z,17.20
2022-11-15T14:37:25.919Z,17.38
2022-11-15T14:39:53.741Z,17.40
2022-11-15T14:42:22.822Z,17.44
2022-11-15T14:44:49.268Z,17.45
2022-11-15T14:47:16.246Z,17.26
2022-11-15T14:49:43.640Z,17.06
2022-11-15T14:52:32.996Z,17.13
2022-11-15T14:55:01.194Z,17.14
2022-11-15T14:57:27.641Z,17.20
2022-11-15T14:59:54.509Z,17.21
2022-11-15T15:02:25.195Z,17.20
2022-11-15T15:04:52.692Z,17.29
2022-11-15T15:07:19.359Z,17.15
2022-11-15T15:09:46.658Z,17.14
2022-11-15T15:12:18.530Z,17.21
2022-11-15T15:14:46.646Z,17.23
2022-11-15T15:17:13.159Z,17.26
2022-11-15T15:19:39.605Z,17.29
2022-11-15T15:22:06.470Z,17.24
2022-11-15T15:24:33.173Z,17.12
2022-11-15T15:26:59.639Z,17.15
2022-11-15T15:29:26.147Z,17.12
2022-11-15T15:31:52.649Z,17.10
2022-11-15T15:34:19.113Z,17.08
2022-11-15T15:36:45.600Z,17.07
2022-11-15T15:39:12.084Z,17.08
2022-11-15T15:41:38.543Z,16.99
2022-11-15T15:44:05.063Z,16.94
2022-11-15T15:46:31.523Z,16.92
2022-11-15T15:48:58.022Z,16.84
2022-11-15T15:51:24.463Z,16.57
2022-11-15T15:53:50.943Z,16.75
2022-11-15T15:56:17.402Z,16.79
2022-11-15T15:58:43.861Z,16.77
2022-11-15T16:01:10.345Z,16.84
2022-11-15T16:03:36.872Z,16.87
2022-11-15T16:06:03.545Z,16.92
2022-11-15T16:08:42.591Z,16.86
2022-11-15T16:11:16.521Z,16.86
2022-11-15T16:13:43.106Z,16.82
2022-11-15T16:16:14.278Z,16.89
2022-11-15T16:18:40.769Z,16.83
2022-11-15T16:21:09.431Z,16.84
2022-11-15T16:23:35.897Z,16.74
2022-11-15T16:26:02.401Z,16.47
2022-11-15T16:28:32.002Z,16.49
2022-11-15T16:31:11.346Z,16.60
2022-11-15T16:33:38.936Z,16.61
2022-11-15T16:36:13.435Z,16.61
2022-11-15T16:38:39.953Z,16.62
2022-11-15T16:41:06.460Z,16.61
2022-11-15T16:43:32.967Z,16.66
2022-11-15T16:46:13.448Z,16.70
2022-11-15T16:48:40.170Z,16.74
2022-11-15T16:51:07.421Z,16.77
2022-11-15T16:53:33.931Z,16.75
2022-11-15T16:56:00.399Z,16.82
2022-11-15T16:58:26.912Z,16.83
2022-11-15T17:00:55.637Z,16.73
2022-11-15T17:03:24.285Z,16.76
2022-11-15T17:05:51.316Z,16.77
2022-11-15T17:08:17.838Z,16.80
2022-11-15T17:10:44.359Z,16.79
2022-11-15T17:13:13.941Z,16.81
2022-11-15T17:15:40.629Z,16.83
2022-11-15T17:18:07.107Z,16.81
2022-11-15T17:20:33.627Z,16.81
2022-11-15T17:23:00.140Z,16.77
2022-11-15T17:25:26.748Z,16.75
2022-11-15T17:27:53.194Z,16.58
2022-11-15T17:30:19.802Z,16.48
2022-11-15T17:32:46.316Z,16.57
2022-11-15T17:35:15.509Z,16.59
2022-11-15T17:37:43.226Z,16.61
2022-11-15T17:40:10.462Z,16.56
2022-11-15T17:42:37.172Z,16.57
2022-11-15T17:45:09.399Z,16.62
2022-11-15T17:47:37.523Z,16.61
2022-11-15T17:50:04.391Z,16.61
2022-11-15T17:52:30.976Z,16.60
2022-11-15T17:54:57.464Z,16.59
2022-11-15T17:57:23.906Z,16.55
2022-11-15T17:59:50.448Z,16.54
2022-11-15T18:02:17.035Z,16.49
2022-11-15T18:04:43.496Z,16.52
2022-11-15T18:07:10.173Z,16.48
2022-11-15T18:09:36.707Z,16.50
2022-11-15T18:12:03.221Z,16.38
2022-11-15T18:14:29.709Z,16.48
2022-11-15T18:16:56.178Z,16.48
2022-11-15T18:19:22.621Z,16.47
2022-11-15T18:21:49.086Z,16.43
2022-11-15T18:24:15.561Z,16.39
2022-11-15T18:26:42.075Z,16.41
2022-11-15T18:29:08.546Z,16.42
2022-11-15T18:31:35.026Z,16.41
2022-11-15T18:34:01.543Z,16.44
2022-11-15T18:36:30.340Z,16.44
2022-11-15T18:39:00.930Z,16.41
2022-11-15T18:41:27.408Z,16.38
2022-11-15T18:43:55.090Z,16.36
2022-11-15T18:46:24.458Z,16.42
2022-11-15T18:48:52.608Z,16.41
2022-11-15T18:51:22.424Z,16.38
2022-11-15T18:53:51.995Z,16.35
2022-11-15T18:56:20.912Z,16.39
2022-11-15T18:58:54.073Z,16.42
2022-11-15T19:01:23.851Z,16.30
2022-11-15T19:03:53.335Z,16.39
2022-11-15T19:06:22.822Z,16.41
2022-11-15T19:08:51.549Z,16.35
2022-11-15T19:11:24.391Z,16.33
2022-11-15T19:13:55.483Z,16.38
2022-11-15T19:16:23.077Z,16.32
2022-11-15T19:18:56.747Z,16.33
2022-11-15T19:21:24.715Z,16.33
2022-11-15T19:23:51.561Z,16.27
2022-11-15T19:26:18.310Z,16.28
2022-11-15T19:28:45.179Z,16.22
2022-11-15T19:31:14.596Z,16.20
2022-11-15T19:33:43.923Z,16.19
2022-11-15T19:36:17.288Z,16.14
2022-11-15T19:38:43.850Z,16.07
2022-11-15T19:41:16.100Z,16.14
2022-11-15T19:43:43.335Z,16.12
2022-11-15T19:46:12.056Z,16.12
2022-11-15T19:48:38.994Z,16.10
2022-11-15T19:51:08.487Z,16.14
2022-11-15T19:53:35.380Z,16.17
2022-11-15T19:56:14.232Z,15.89
2022-11-15T19:58:41.490Z,15.95
2022-11-15T20:01:23.677Z,15.92
2022-11-15T20:03:52.435Z,15.88
2022-11-15T20:06:21.861Z,15.82
2022-11-15T20:08:48.444Z,15.86
2022-11-15T20:11:16.309Z,15.53
2022-11-15T20:13:42.935Z,15.40
2022-11-15T20:16:18.426Z,15.39
2022-11-15T20:18:45.429Z,15.41
2022-11-15T20:21:12.235Z,15.39
2022-11-15T20:23:38.736Z,15.47
2022-11-15T20:26:07.078Z,15.39
2022-11-15T20:28:34.089Z,15.17
2022-11-15T20:31:01.626Z,14.90
2022-11-15T20:33:31.098Z,14.89
2022-11-15T20:35:57.592Z,14.96
2022-11-15T20:38:24.719Z,14.97
2022-11-15T20:40:53.691Z,14.90
2022-11-15T20:43:23.986Z,14.53
2022-11-15T20:45:50.432Z,14.68
2022-11-15T20:48:17.626Z,14.77
2022-11-15T20:50:45.686Z,14.80
2022-11-15T20:53:15.320Z,14.88
2022-11-15T20:55:43.865Z,14.94
2022-11-15T20:58:10.857Z,15.10
2022-11-15T21:00:38.155Z,14.80
2022-11-15T21:03:07.357Z,14.92
2022-11-15T21:05:41.864Z,15.01
2022-11-15T21:08:09.956Z,14.96
2022-11-15T21:10:36.548Z,15.07
2022-11-15T21:13:03.093Z,15.07
2022-11-15T21:15:29.559Z,15.12
2022-11-15T21:17:56.012Z,15.16
2022-11-15T21:20:22.483Z,15.21
2022-11-15T21:22:48.946Z,15.21
2022-11-15T21:25:15.509Z,15.19
2022-11-15T21:27:41.988Z,15.21
2022-11-15T21:30:08.778Z,15.27
2022-11-15T21:32:35.256Z,15.29
2022-11-15T21:35:01.738Z,15.34
2022-11-15T21:37:28.212Z,15.24
2022-11-15T21:39:54.684Z,15.25
2022-11-15T21:42:21.142Z,15.33
2022-11-15T21:44:47.615Z,15.35
2022-11-15T21:47:14.107Z,15.34
2022-11-15T21:49:40.574Z,15.29
2022-11-15T21:52:07.050Z,15.22
2022-11-15T21:54:33.524Z,15.13
2022-11-15T21:56:59.975Z,15.27
2022-11-15T21:59:26.409Z,15.33
2022-11-15T22:01:52.869Z,15.39
2022-11-15T22:04:19.341Z,15.39
2022-11-15T22:06:45.787Z,15.35
2022-11-15T22:09:12.259Z,15.38
2022-11-15T22:11:38.751Z,15.23
2022-11-15T22:14:05.201Z,14.96
2022-11-15T22:16:32.258Z,15.05
2022-11-15T22:18:59.205Z,14.95
2022-11-15T22:21:25.650Z,15.00
2022-11-15T22:23:52.164Z,15.12
2022-11-15T22:26:23.521Z,15.14
2022-11-15T22:28:51.202Z,15.15
2022-11-15T22:31:17.902Z,15.20
2022-11-15T22:33:44.399Z,15.19
2022-11-15T22:36:12.644Z,14.97
2022-11-15T22:38:39.523Z,14.66
2022-11-15T22:41:06.492Z,14.88
2022-11-15T22:43:32.980Z,14.83
2022-11-15T22:46:01.960Z,14.17
2022-11-15T22:48:34.556Z,13.66
2022-11-15T22:51:02.109Z,13.52
2022-11-15T22:53:29.614Z,13.77
2022-11-15T22:55:58.454Z,13.98
2022-11-15T22:58:27.241Z,14.19
2022-11-15T23:00:56.439Z,13.78
2022-11-15T23:03:24.647Z,13.68
2022-11-15T23:05:51.890Z,13.72
2022-11-15T23:08:19.442Z,13.47
2022-11-15T23:10:46.363Z,13.70
2022-11-15T23:13:14.054Z,13.82
2022-11-15T23:15:40.500Z,13.58
2022-11-15T23:18:06.985Z,13.96
2022-11-15T23:20:42.880Z,14.14
2022-11-15T23:23:11.655Z,14.35
2022-11-15T23:25:38.160Z,14.52
2022-11-15T23:28:05.337Z,14.64
2022-11-15T23:30:36.612Z,14.74
2022-11-15T23:33:03.069Z,14.87
2022-11-15T23:35:29.507Z,14.92
2022-11-15T23:37:56.048Z,15.04
2022-11-15T23:40:22.473Z,15.08
2022-11-15T23:42:48.948Z,15.11
2022-11-15T23:45:15.622Z,15.01
2022-11-15T23:47:42.180Z,15.09
2022-11-15T23:50:09.404Z,14.85
2022-11-15T23:52:35.901Z,14.07
2022-11-15T23:55:02.357Z,13.68
2022-11-15T23:57:28.834Z,13.27
2022-11-15T23:59:55.307Z,13.05
